Airfield :
LOGIN :

Register | Disclaimer

   EN    FR    IT 

 










Legend :    VFR   Marginal VFR   IFR   Intensive IFR   Very Intensive IFR
Visi :
Ceiling :
>= 8 km
>= 3000ft
5 to 8 km
1000 to 3000 ft
1500m to 5 km
500 to 1000 ft
800 to 1500m
200 to 500 ft
< 800m
< 200 ft
Symbols :   Thunderstorms  Fog  Heavy snow  Heavy precipitations  Wind > 20 kt
SIGMETs :     Misc.  Thunderstorms  Icing  Turbulence  Mountain Waves  Volcanic Ashes







- Airport Elevation : 364 ft
- Download approach charts


LFAQ - Albert Bray

CURRENT METAR :
  • 201700Z AUTO 09008KT 3400 -SN BR BKN013/// BKN020/// BKN025/// ///TCU 01/00 Q1004 TEMPO BKN008 OVC030

EXPIRED METARs :
  • 201630Z AUTO 10005KT 6000 -SNRA FEW009/// BKN015/// OVC025/// ///TCU 02/01 Q1003 TEMPO 4000 -RASN BKN008 OVC030
  • 201600Z AUTO 09009KT 6000 -SNRA FEW019 OVC027 02/00 Q1003 TEMPO 4000 -RASN BKN008 OVC030
  • 201530Z AUTO 09004KT 7000 -SNRA FEW013 BKN020 OVC031 02/01 Q1003 TEMPO 4000 -RASN BKN008 OVC030
  • 201500Z AUTO 10006KT 7000 -SNRA SCT013 BKN020 BKN027 02/01 Q1003 TEMPO 4000 -RASN BKN008 OVC030
  • 201430Z AUTO 09013KT 9999 OVC031 03/M00 Q1003 TEMPO 4000 -RASN BKN008 OVC030

TAF TAF LFAQ
Valid from the 20 at 15:00 until the 21 at 00:00 UTC


201400Z 2015/2024 06012KT 9999 OVC035
PROB30
TEMPO 2015/2021 4000 -RASN BKN008 OVC030
BECMG 2015/2018 13005KT
No reported NOTAMs for that airfield.



MET'MAP, your aeronautical weather chart ! - Copyright ORBIFLY December 2007 - Disclaimer

ORBIFLY MET'MAP TEAM :

Programming & Development : Alexandra Zaïnal
Concept & Development : Baudouin d'Aumeries
Co-Development & Prog : Marc-Olivier Méhu
Technical & hardware support : Manuel Goepfert

Contact : metmap@orbifly.com




SOURCES & CREDITS :

   NOAA